sensor_id;sensor_type;location;lat;lon;timestamp;pressure;altitude;pressure_sealevel;temperature;humidity
39301;BME280;25019;42.626;23.380;2024-02-28T00:01:50;94652.41;;;6.34;100.00
39301;BME280;25019;42.626;23.380;2024-02-28T00:04:16;94779.69;;;7.12;100.00
39301;BME280;25019;42.626;23.380;2024-02-28T00:06:42;94696.09;;;6.55;100.00
39301;BME280;25019;42.626;23.380;2024-02-28T00:09:08;94608.63;;;6.00;100.00
39301;BME280;25019;42.626;23.380;2024-02-28T00:11:34;94776.22;;;7.11;100.00
39301;BME280;25019;42.626;23.380;2024-02-28T00:13:59;94713.88;;;6.66;100.00
39301;BME280;25019;42.626;23.380;2024-02-28T00:16:25;94782.00;;;7.01;100.00
39301;BME280;25019;42.626;23.380;2024-02-28T00:18:51;94726.06;;;6.60;100.00
39301;BME280;25019;42.626;23.380;2024-02-28T00:21:17;94693.75;;;6.40;100.00
39301;BME280;25019;42.626;23.380;2024-02-28T00:23:42;94788.16;;;6.95;100.00
39301;BME280;25019;42.626;23.380;2024-02-28T00:26:08;94744.13;;;6.64;100.00
39301;BME280;25019;42.626;23.380;2024-02-28T00:28:34;94784.09;;;6.93;100.00
39301;BME280;25019;42.626;23.380;2024-02-28T00:30:59;94777.44;;;6.90;100.00
39301;BME280;25019;42.626;23.380;2024-02-28T00:33:25;94782.72;;;6.90;100.00
39301;BME280;25019;42.626;23.380;2024-02-28T00:35:51;94723.13;;;6.50;100.00
39301;BME280;25019;42.626;23.380;2024-02-28T00:38:18;94725.75;;;6.50;100.00
39301;BME280;25019;42.626;23.380;2024-02-28T00:40:44;94767.13;;;6.82;100.00
39301;BME280;25019;42.626;23.380;2024-02-28T00:43:10;94627.75;;;5.89;100.00
39301;BME280;25019;42.626;23.380;2024-02-28T00:45:35;94745.91;;;6.70;100.00
39301;BME280;25019;42.626;23.380;2024-02-28T00:48:01;94750.59;;;6.68;100.00
39301;BME280;25019;42.626;23.380;2024-02-28T00:50:27;94715.69;;;6.40;100.00
39301;BME280;25019;42.626;23.380;2024-02-28T00:52:53;94769.84;;;6.75;100.00
39301;BME280;25019;42.626;23.380;2024-02-28T00:55:18;94754.50;;;6.58;100.00
39301;BME280;25019;42.626;23.380;2024-02-28T00:57:44;94717.75;;;6.32;100.00
39301;BME280;25019;42.626;23.380;2024-02-28T01:00:10;94710.31;;;6.22;100.00
39301;BME280;25019;42.626;23.380;2024-02-28T01:02:36;94727.50;;;6.31;100.00
39301;BME280;25019;42.626;23.380;2024-02-28T01:05:02;94756.44;;;6.44;100.00
39301;BME280;25019;42.626;23.380;2024-02-28T01:07:27;94784.34;;;6.59;100.00
39301;BME280;25019;42.626;23.380;2024-02-28T01:09:53;94707.56;;;6.10;100.00
39301;BME280;25019;42.626;23.380;2024-02-28T01:12:19;94771.41;;;6.51;100.00
39301;BME280;25019;42.626;23.380;2024-02-28T01:14:45;94690.78;;;5.97;100.00
39301;BME280;25019;42.626;23.380;2024-02-28T01:17:10;94758.09;;;6.39;100.00
39301;BME280;25019;42.626;23.380;2024-02-28T01:19:36;94633.47;;;5.47;100.00
39301;BME280;25019;42.626;23.380;2024-02-28T01:22:01;94759.59;;;6.28;100.00
39301;BME280;25019;42.626;23.380;2024-02-28T01:24:27;94774.16;;;6.37;100.00
39301;BME280;25019;42.626;23.380;2024-02-28T01:26:53;94781.03;;;6.38;100.00
39301;BME280;25019;42.626;23.380;2024-02-28T01:29:18;94780.88;;;6.33;100.00
39301;BME280;25019;42.626;23.380;2024-02-28T01:31:45;94706.88;;;5.82;100.00
39301;BME280;25019;42.626;23.380;2024-02-28T01:34:10;94703.22;;;5.83;100.00
39301;BME280;25019;42.626;23.380;2024-02-28T01:36:36;94783.28;;;6.35;100.00
39301;BME280;25019;42.626;23.380;2024-02-28T01:39:02;94747.72;;;6.12;100.00
39301;BME280;25019;42.626;23.380;2024-02-28T01:41:28;94717.97;;;5.91;100.00
39301;BME280;25019;42.626;23.380;2024-02-28T01:43:54;94714.19;;;5.80;100.00
39301;BME280;25019;42.626;23.380;2024-02-28T01:46:25;94646.47;;;5.35;100.00
39301;BME280;25019;42.626;23.380;2024-02-28T01:48:53;94742.31;;;5.93;100.00
39301;BME280;25019;42.626;23.380;2024-02-28T01:51:22;94786.75;;;6.28;100.00
39301;BME280;25019;42.626;23.380;2024-02-28T01:53:48;94774.63;;;6.21;100.00
39301;BME280;25019;42.626;23.380;2024-02-28T01:56:15;94716.41;;;5.77;100.00
39301;BME280;25019;42.626;23.380;2024-02-28T01:58:46;94698.81;;;5.70;100.00
39301;BME280;25019;42.626;23.380;2024-02-28T02:01:13;94795.88;;;6.33;100.00
39301;BME280;25019;42.626;23.380;2024-02-28T02:03:43;94760.09;;;6.11;100.00
39301;BME280;25019;42.626;23.380;2024-02-28T02:06:09;94776.06;;;6.23;100.00
39301;BME280;25019;42.626;23.380;2024-02-28T02:08:36;94709.50;;;5.82;100.00
39301;BME280;25019;42.626;23.380;2024-02-28T02:11:02;94785.72;;;6.36;100.00
39301;BME280;25019;42.626;23.380;2024-02-28T02:13:28;94734.56;;;6.05;100.00
39301;BME280;25019;42.626;23.380;2024-02-28T02:15:54;94775.38;;;6.35;100.00
39301;BME280;25019;42.626;23.380;2024-02-28T02:18:19;94786.44;;;6.50;100.00
39301;BME280;25019;42.626;23.380;2024-02-28T02:20:49;94794.50;;;6.55;100.00
39301;BME280;25019;42.626;23.380;2024-02-28T02:23:15;94784.44;;;6.45;100.00
39301;BME280;25019;42.626;23.380;2024-02-28T02:25:47;94781.19;;;6.43;100.00
39301;BME280;25019;42.626;23.380;2024-02-28T02:28:14;94798.63;;;6.51;100.00
39301;BME280;25019;42.626;23.380;2024-02-28T02:30:40;94797.81;;;6.51;100.00
39301;BME280;25019;42.626;23.380;2024-02-28T02:33:10;94795.59;;;6.48;100.00
39301;BME280;25019;42.626;23.380;2024-02-28T02:35:36;94721.59;;;5.97;100.00
39301;BME280;25019;42.626;23.380;2024-02-28T02:38:02;94746.91;;;6.11;100.00
39301;BME280;25019;42.626;23.380;2024-02-28T02:40:28;94642.56;;;5.45;100.00
39301;BME280;25019;42.626;23.380;2024-02-28T02:42:54;94698.38;;;5.74;100.00
39301;BME280;25019;42.626;23.380;2024-02-28T02:45:19;94776.06;;;6.23;100.00
39301;BME280;25019;42.626;23.380;2024-02-28T02:47:45;94704.66;;;5.73;100.00
39301;BME280;25019;42.626;23.380;2024-02-28T02:50:11;94655.00;;;5.37;100.00
39301;BME280;25019;42.626;23.380;2024-02-28T02:52:37;94591.94;;;4.97;100.00
39301;BME280;25019;42.626;23.380;2024-02-28T02:55:03;94666.28;;;5.45;100.00
39301;BME280;25019;42.626;23.380;2024-02-28T02:57:31;94713.75;;;5.83;100.00
39301;BME280;25019;42.626;23.380;2024-02-28T02:59:57;94617.38;;;5.17;100.00
39301;BME280;25019;42.626;23.380;2024-02-28T03:02:23;94790.59;;;6.33;100.00
39301;BME280;25019;42.626;23.380;2024-02-28T03:04:49;94758.84;;;6.14;100.00
39301;BME280;25019;42.626;23.380;2024-02-28T03:07:14;94584.03;;;4.97;100.00
39301;BME280;25019;42.626;23.380;2024-02-28T03:09:40;94791.25;;;6.28;100.00
39301;BME280;25019;42.626;23.380;2024-02-28T03:12:06;94731.94;;;5.98;100.00
39301;BME280;25019;42.626;23.380;2024-02-28T03:14:32;94784.16;;;6.22;100.00
39301;BME280;25019;42.626;23.380;2024-02-28T03:16:58;94661.00;;;5.45;100.00
39301;BME280;25019;42.626;23.380;2024-02-28T03:19:24;94762.50;;;6.13;100.00
39301;BME280;25019;42.626;23.380;2024-02-28T03:21:50;94791.47;;;6.26;100.00
39301;BME280;25019;42.626;23.380;2024-02-28T03:24:15;94807.03;;;6.35;100.00
39301;BME280;25019;42.626;23.380;2024-02-28T03:26:42;94780.31;;;6.18;100.00
39301;BME280;25019;42.626;23.380;2024-02-28T03:29:08;94776.53;;;6.07;100.00
39301;BME280;25019;42.626;23.380;2024-02-28T03:31:34;94796.56;;;6.21;100.00
39301;BME280;25019;42.626;23.380;2024-02-28T03:34:00;94737.72;;;5.75;100.00
39301;BME280;25019;42.626;23.380;2024-02-28T03:36:28;94780.81;;;6.01;100.00
39301;BME280;25019;42.626;23.380;2024-02-28T03:38:54;94816.03;;;6.20;100.00
39301;BME280;25019;42.626;23.380;2024-02-28T03:41:19;94817.84;;;6.20;100.00
39301;BME280;25019;42.626;23.380;2024-02-28T03:43:45;94806.53;;;6.12;100.00
39301;BME280;25019;42.626;23.380;2024-02-28T03:46:11;94813.59;;;6.19;100.00
39301;BME280;25019;42.626;23.380;2024-02-28T03:48:36;94731.09;;;5.59;100.00
39301;BME280;25019;42.626;23.380;2024-02-28T03:51:02;94752.97;;;5.66;100.00
39301;BME280;25019;42.626;23.380;2024-02-28T03:53:28;94813.63;;;6.12;100.00
39301;BME280;25019;42.626;23.380;2024-02-28T03:55:54;94799.06;;;6.03;100.00
39301;BME280;25019;42.626;23.380;2024-02-28T03:58:19;94749.69;;;5.71;100.00
39301;BME280;25019;42.626;23.380;2024-02-28T04:00:45;94814.00;;;6.15;100.00
39301;BME280;25019;42.626;23.380;2024-02-28T04:03:11;94818.91;;;6.12;100.00
39301;BME280;25019;42.626;23.380;2024-02-28T04:05:39;94818.72;;;6.07;100.00
39301;BME280;25019;42.626;23.380;2024-02-28T04:08:05;94812.06;;;6.04;100.00
39301;BME280;25019;42.626;23.380;2024-02-28T04:10:31;94698.56;;;5.33;100.00
39301;BME280;25019;42.626;23.380;2024-02-28T04:12:57;94788.13;;;5.85;100.00
39301;BME280;25019;42.626;23.380;2024-02-28T04:15:22;94789.38;;;5.83;100.00
39301;BME280;25019;42.626;23.380;2024-02-28T04:17:51;94759.00;;;5.74;100.00
39301;BME280;25019;42.626;23.380;2024-02-28T04:20:17;94742.00;;;5.63;100.00
39301;BME280;25019;42.626;23.380;2024-02-28T04:22:42;94749.91;;;5.69;100.00
39301;BME280;25019;42.626;23.380;2024-02-28T04:25:08;94800.25;;;6.07;100.00
39301;BME280;25019;42.626;23.380;2024-02-28T04:27:36;94812.66;;;6.06;100.00
39301;BME280;25019;42.626;23.380;2024-02-28T04:30:02;94732.09;;;5.58;100.00
39301;BME280;25019;42.626;23.380;2024-02-28T04:32:27;94791.75;;;5.98;100.00
39301;BME280;25019;42.626;23.380;2024-02-28T04:34:53;94786.09;;;5.94;100.00
39301;BME280;25019;42.626;23.380;2024-02-28T04:37:19;94679.31;;;5.26;100.00
39301;BME280;25019;42.626;23.380;2024-02-28T04:39:44;94750.47;;;5.72;100.00
39301;BME280;25019;42.626;23.380;2024-02-28T04:42:10;94807.56;;;5.98;100.00
39301;BME280;25019;42.626;23.380;2024-02-28T04:44:36;94813.88;;;6.04;100.00
39301;BME280;25019;42.626;23.380;2024-02-28T04:47:01;94801.50;;;5.91;100.00
39301;BME280;25019;42.626;23.380;2024-02-28T04:49:28;94686.66;;;5.17;100.00
39301;BME280;25019;42.626;23.380;2024-02-28T04:51:53;94823.81;;;6.02;100.00
39301;BME280;25019;42.626;23.380;2024-02-28T04:54:19;94819.97;;;6.04;100.00
39301;BME280;25019;42.626;23.380;2024-02-28T04:56:45;94720.00;;;5.37;100.00
39301;BME280;25019;42.626;23.380;2024-02-28T04:59:12;94768.56;;;5.68;100.00
39301;BME280;25019;42.626;23.380;2024-02-28T05:01:39;94719.41;;;5.35;100.00
39301;BME280;25019;42.626;23.380;2024-02-28T05:04:06;94720.22;;;5.35;100.00
39301;BME280;25019;42.626;23.380;2024-02-28T05:06:32;94690.31;;;5.09;100.00
39301;BME280;25019;42.626;23.380;2024-02-28T05:08:58;94805.81;;;5.72;100.00
39301;BME280;25019;42.626;23.380;2024-02-28T05:11:23;94835.38;;;5.94;100.00
39301;BME280;25019;42.626;23.380;2024-02-28T05:13:49;94792.91;;;5.63;100.00
39301;BME280;25019;42.626;23.380;2024-02-28T05:16:15;94832.56;;;5.82;100.00
39301;BME280;25019;42.626;23.380;2024-02-28T05:18:41;94827.91;;;5.84;100.00
39301;BME280;25019;42.626;23.380;2024-02-28T05:21:07;94816.97;;;5.74;100.00
39301;BME280;25019;42.626;23.380;2024-02-28T05:23:33;94814.97;;;5.69;100.00
39301;BME280;25019;42.626;23.380;2024-02-28T05:25:59;94846.31;;;5.91;100.00
39301;BME280;25019;42.626;23.380;2024-02-28T05:28:35;94808.50;;;5.65;100.00
39301;BME280;25019;42.626;23.380;2024-02-28T05:31:02;94858.09;;;5.95;100.00
39301;BME280;25019;42.626;23.380;2024-02-28T05:33:29;94803.03;;;5.60;100.00
39301;BME280;25019;42.626;23.380;2024-02-28T05:35:55;94863.34;;;6.02;100.00
39301;BME280;25019;42.626;23.380;2024-02-28T05:38:21;94868.03;;;6.06;100.00
39301;BME280;25019;42.626;23.380;2024-02-28T05:40:46;94862.75;;;6.06;100.00
39301;BME280;25019;42.626;23.380;2024-02-28T05:43:12;94776.69;;;5.53;100.00
39301;BME280;25019;42.626;23.380;2024-02-28T05:45:38;94881.16;;;6.20;100.00
39301;BME280;25019;42.626;23.380;2024-02-28T05:48:04;94880.56;;;6.18;100.00
39301;BME280;25019;42.626;23.380;2024-02-28T05:50:29;94832.53;;;5.89;100.00
39301;BME280;25019;42.626;23.380;2024-02-28T05:52:57;94877.91;;;6.24;100.00
39301;BME280;25019;42.626;23.380;2024-02-28T05:55:23;94892.28;;;6.28;100.00
39301;BME280;25019;42.626;23.380;2024-02-28T05:57:49;94836.34;;;5.99;100.00
39301;BME280;25019;42.626;23.380;2024-02-28T06:00:15;94878.66;;;6.32;100.00
39301;BME280;25019;42.626;23.380;2024-02-28T06:02:41;94884.72;;;6.39;100.00
39301;BME280;25019;42.626;23.380;2024-02-28T06:05:07;94826.44;;;6.08;100.00
39301;BME280;25019;42.626;23.380;2024-02-28T06:07:33;94890.25;;;6.69;100.00
39301;BME280;25019;42.626;23.380;2024-02-28T06:09:59;94884.38;;;6.74;100.00
39301;BME280;25019;42.626;23.380;2024-02-28T06:12:25;94870.34;;;6.73;100.00
39301;BME280;25019;42.626;23.380;2024-02-28T06:14:51;94882.22;;;6.89;100.00
39301;BME280;25019;42.626;23.380;2024-02-28T06:17:16;94889.91;;;6.98;100.00
39301;BME280;25019;42.626;23.380;2024-02-28T06:19:42;94900.81;;;7.08;100.00
39301;BME280;25019;42.626;23.380;2024-02-28T06:22:07;94854.81;;;6.90;100.00
39301;BME280;25019;42.626;23.380;2024-02-28T06:24:34;94835.72;;;6.88;100.00
39301;BME280;25019;42.626;23.380;2024-02-28T06:27:00;94904.81;;;7.43;100.00
39301;BME280;25019;42.626;23.380;2024-02-28T06:29:25;94906.22;;;7.45;100.00
39301;BME280;25019;42.626;23.380;2024-02-28T06:31:51;94895.81;;;7.50;100.00
39301;BME280;25019;42.626;23.380;2024-02-28T06:34:17;94904.44;;;7.64;100.00
39301;BME280;25019;42.626;23.380;2024-02-28T06:36:44;94886.28;;;7.68;100.00
39301;BME280;25019;42.626;23.380;2024-02-28T06:39:10;94920.22;;;7.97;100.00
39301;BME280;25019;42.626;23.380;2024-02-28T06:41:35;94912.47;;;7.95;100.00
39301;BME280;25019;42.626;23.380;2024-02-28T06:44:01;94903.00;;;7.87;100.00
39301;BME280;25019;42.626;23.380;2024-02-28T06:46:27;94917.06;;;8.06;100.00
39301;BME280;25019;42.626;23.380;2024-02-28T06:48:52;94896.16;;;7.98;100.00
39301;BME280;25019;42.626;23.380;2024-02-28T06:51:18;94901.41;;;8.05;100.00
39301;BME280;25019;42.626;23.380;2024-02-28T06:53:44;94915.50;;;8.17;100.00
39301;BME280;25019;42.626;23.380;2024-02-28T06:56:10;94914.63;;;8.23;100.00
39301;BME280;25019;42.626;23.380;2024-02-28T06:58:35;94912.94;;;8.29;100.00
39301;BME280;25019;42.626;23.380;2024-02-28T07:01:01;94908.16;;;8.38;100.00
39301;BME280;25019;42.626;23.380;2024-02-28T07:03:27;94890.22;;;8.21;100.00
39301;BME280;25019;42.626;23.380;2024-02-28T07:05:52;94835.78;;;7.95;100.00
39301;BME280;25019;42.626;23.380;2024-02-28T07:08:20;94905.06;;;8.41;100.00
39301;BME280;25019;42.626;23.380;2024-02-28T07:10:46;94906.25;;;8.27;100.00
39301;BME280;25019;42.626;23.380;2024-02-28T07:13:15;94917.59;;;8.34;100.00
39301;BME280;25019;42.626;23.380;2024-02-28T07:15:41;94852.03;;;7.99;100.00
39301;BME280;25019;42.626;23.380;2024-02-28T07:18:07;94908.16;;;8.38;100.00
39301;BME280;25019;42.626;23.380;2024-02-28T07:20:33;94915.28;;;8.37;100.00
39301;BME280;25019;42.626;23.380;2024-02-28T07:22:59;94919.91;;;8.42;100.00
39301;BME280;25019;42.626;23.380;2024-02-28T07:25:25;94904.94;;;8.36;100.00
39301;BME280;25019;42.626;23.380;2024-02-28T07:27:51;94901.47;;;8.35;100.00
39301;BME280;25019;42.626;23.380;2024-02-28T07:30:16;94824.16;;;7.96;100.00
39301;BME280;25019;42.626;23.380;2024-02-28T07:32:42;94902.50;;;8.53;100.00
39301;BME280;25019;42.626;23.380;2024-02-28T07:35:08;94915.81;;;8.65;100.00
39301;BME280;25019;42.626;23.380;2024-02-28T07:37:34;94925.94;;;8.87;100.00
39301;BME280;25019;42.626;23.380;2024-02-28T07:39:59;94852.00;;;8.36;100.00
39301;BME280;25019;42.626;23.380;2024-02-28T07:42:25;94860.75;;;8.55;100.00
39301;BME280;25019;42.626;23.380;2024-02-28T07:44:51;94867.25;;;8.71;100.00
39301;BME280;25019;42.626;23.380;2024-02-28T07:47:22;94897.03;;;8.97;100.00
39301;BME280;25019;42.626;23.380;2024-02-28T07:49:48;94916.09;;;9.06;100.00
39301;BME280;25019;42.626;23.380;2024-02-28T07:52:13;94921.66;;;9.16;100.00
39301;BME280;25019;42.626;23.380;2024-02-28T07:54:41;94897.06;;;9.09;100.00
39301;BME280;25019;42.626;23.380;2024-02-28T07:57:08;94918.13;;;9.34;100.00
39301;BME280;25019;42.626;23.380;2024-02-28T07:59:41;94896.44;;;9.25;100.00
39301;BME280;25019;42.626;23.380;2024-02-28T08:02:07;94916.97;;;9.42;100.00
39301;BME280;25019;42.626;23.380;2024-02-28T08:04:33;94918.63;;;9.55;100.00
39301;BME280;25019;42.626;23.380;2024-02-28T08:07:00;94911.38;;;9.62;100.00
39301;BME280;25019;42.626;23.380;2024-02-28T08:09:25;94916.66;;;9.62;100.00
39301;BME280;25019;42.626;23.380;2024-02-28T08:11:51;94803.75;;;9.07;100.00
39301;BME280;25019;42.626;23.380;2024-02-28T08:14:17;94906.53;;;9.83;100.00
39301;BME280;25019;42.626;23.380;2024-02-28T08:16:43;94903.53;;;9.91;99.18
39301;BME280;25019;42.626;23.380;2024-02-28T08:19:09;94902.72;;;10.02;98.18
39301;BME280;25019;42.626;23.380;2024-02-28T08:21:34;94898.19;;;10.27;97.60
39301;BME280;25019;42.626;23.380;2024-02-28T08:24:00;94898.19;;;10.39;96.29
39301;BME280;25019;42.626;23.380;2024-02-28T08:26:30;94910.50;;;10.57;95.46
39301;BME280;25019;42.626;23.380;2024-02-28T08:29:15;94907.47;;;10.65;93.94
39301;BME280;25019;42.626;23.380;2024-02-28T08:31:42;94910.56;;;10.74;92.91
39301;BME280;25019;42.626;23.380;2024-02-28T08:34:08;94877.53;;;10.70;92.37
39301;BME280;25019;42.626;23.380;2024-02-28T08:36:35;94889.88;;;10.76;91.14
39301;BME280;25019;42.626;23.380;2024-02-28T08:39:00;94882.34;;;10.85;91.93
39301;BME280;25019;42.626;23.380;2024-02-28T08:41:26;94891.97;;;10.74;90.97
39301;BME280;25019;42.626;23.380;2024-02-28T08:43:52;94905.69;;;10.83;90.52
39301;BME280;25019;42.626;23.380;2024-02-28T08:46:18;94845.19;;;10.44;90.44
39301;BME280;25019;42.626;23.380;2024-02-28T08:48:43;94800.22;;;10.25;90.01
39301;BME280;25019;42.626;23.380;2024-02-28T08:51:11;94867.53;;;10.60;90.72
39301;BME280;25019;42.626;23.380;2024-02-28T08:53:37;94897.91;;;10.93;90.90
39301;BME280;25019;42.626;23.380;2024-02-28T08:56:03;94880.75;;;11.01;88.69
39301;BME280;25019;42.626;23.380;2024-02-28T08:58:28;94886.59;;;11.15;87.42
39301;BME280;25019;42.626;23.380;2024-02-28T09:00:54;94892.88;;;11.26;87.65
39301;BME280;25019;42.626;23.380;2024-02-28T09:03:20;94829.28;;;10.90;87.13
39301;BME280;25019;42.626;23.380;2024-02-28T09:05:48;94836.06;;;10.98;86.75
39301;BME280;25019;42.626;23.380;2024-02-28T09:08:14;94893.06;;;11.36;86.74
39301;BME280;25019;42.626;23.380;2024-02-28T09:10:39;94895.22;;;11.22;87.43
39301;BME280;25019;42.626;23.380;2024-02-28T09:13:05;94879.19;;;11.17;86.62
39301;BME280;25019;42.626;23.380;2024-02-28T09:15:33;94868.47;;;11.12;86.56
39301;BME280;25019;42.626;23.380;2024-02-28T09:17:59;94890.25;;;11.43;85.48
39301;BME280;25019;42.626;23.380;2024-02-28T09:20:26;94894.34;;;11.67;85.06
39301;BME280;25019;42.626;23.380;2024-02-28T09:22:52;94844.47;;;11.41;84.59
39301;BME280;25019;42.626;23.380;2024-02-28T09:25:17;94887.97;;;11.86;83.51
39301;BME280;25019;42.626;23.380;2024-02-28T09:27:44;94846.34;;;11.79;82.75
39301;BME280;25019;42.626;23.380;2024-02-28T09:30:10;94879.06;;;12.14;81.45
39301;BME280;25019;42.626;23.380;2024-02-28T09:32:35;94882.44;;;12.26;82.03
39301;BME280;25019;42.626;23.380;2024-02-28T09:35:03;94819.97;;;11.95;80.92
39301;BME280;25019;42.626;23.380;2024-02-28T09:37:30;94878.09;;;12.42;79.51
39301;BME280;25019;42.626;23.380;2024-02-28T09:39:57;94870.16;;;12.25;78.92
39301;BME280;25019;42.626;23.380;2024-02-28T09:42:23;94818.28;;;11.89;79.42
39301;BME280;25019;42.626;23.380;2024-02-28T09:44:49;94864.81;;;12.03;78.87
39301;BME280;25019;42.626;23.380;2024-02-28T09:47:15;94821.69;;;11.84;78.81
39301;BME280;25019;42.626;23.380;2024-02-28T09:49:42;94871.78;;;12.49;78.68
39301;BME280;25019;42.626;23.380;2024-02-28T09:52:08;94877.97;;;12.54;78.53
39301;BME280;25019;42.626;23.380;2024-02-28T09:54:34;94868.13;;;12.33;77.39
39301;BME280;25019;42.626;23.380;2024-02-28T09:57:00;94874.13;;;12.67;76.96
39301;BME280;25019;42.626;23.380;2024-02-28T09:59:26;94812.81;;;12.40;76.45
39301;BME280;25019;42.626;23.380;2024-02-28T10:01:56;94870.88;;;12.87;76.07
39301;BME280;25019;42.626;23.380;2024-02-28T10:04:26;94865.75;;;13.08;75.35
39301;BME280;25019;42.626;23.380;2024-02-28T10:06:56;94866.28;;;13.38;74.70
39301;BME280;25019;42.626;23.380;2024-02-28T10:09:21;94853.63;;;13.55;73.65
39301;BME280;25019;42.626;23.380;2024-02-28T10:11:47;94839.16;;;13.46;72.04
39301;BME280;25019;42.626;23.380;2024-02-28T10:14:19;94861.19;;;13.69;71.17
39301;BME280;25019;42.626;23.380;2024-02-28T10:16:45;94845.41;;;13.62;70.85
39301;BME280;25019;42.626;23.380;2024-02-28T10:19:11;94855.09;;;13.73;71.30
39301;BME280;25019;42.626;23.380;2024-02-28T10:21:37;94859.50;;;13.95;70.43
39301;BME280;25019;42.626;23.380;2024-02-28T10:24:02;94829.78;;;13.81;69.33
39301;BME280;25019;42.626;23.380;2024-02-28T10:26:28;94783.56;;;13.75;68.73
39301;BME280;25019;42.626;23.380;2024-02-28T10:28:57;94821.97;;;14.17;68.00
39301;BME280;25019;42.626;23.380;2024-02-28T10:31:22;94835.16;;;14.45;67.48
39301;BME280;25019;42.626;23.380;2024-02-28T10:33:48;94814.59;;;14.56;67.16
39301;BME280;25019;42.626;23.380;2024-02-28T10:36:15;94835.47;;;14.59;66.32
39301;BME280;25019;42.626;23.380;2024-02-28T10:38:41;94756.81;;;14.29;66.31
39301;BME280;25019;42.626;23.380;2024-02-28T10:41:06;94767.81;;;14.32;64.73
39301;BME280;25019;42.626;23.380;2024-02-28T10:43:32;94817.84;;;14.63;63.08
39301;BME280;25019;42.626;23.380;2024-02-28T10:46:00;94758.75;;;14.49;63.08
39301;BME280;25019;42.626;23.380;2024-02-28T10:48:26;94806.44;;;15.04;62.75
39301;BME280;25019;42.626;23.380;2024-02-28T10:50:53;94808.31;;;15.13;62.89
39301;BME280;25019;42.626;23.380;2024-02-28T10:53:41;94808.03;;;14.94;62.88
39301;BME280;25019;42.626;23.380;2024-02-28T10:56:10;94771.66;;;14.73;62.58
39301;BME280;25019;42.626;23.380;2024-02-28T10:58:38;94783.94;;;14.68;61.73
39301;BME280;25019;42.626;23.380;2024-02-28T11:01:08;94767.28;;;14.41;61.40
39301;BME280;25019;42.626;23.380;2024-02-28T11:03:34;94795.41;;;14.64;62.01
39301;BME280;25019;42.626;23.380;2024-02-28T11:06:00;94731.44;;;14.36;61.32
39301;BME280;25019;42.626;23.380;2024-02-28T11:08:29;94741.91;;;14.53;60.45
39301;BME280;25019;42.626;23.380;2024-02-28T11:11:03;94766.84;;;14.75;59.01
39301;BME280;25019;42.626;23.380;2024-02-28T11:13:33;94788.50;;;14.89;58.62
39301;BME280;25019;42.626;23.380;2024-02-28T11:16:09;94783.41;;;14.77;58.72
39301;BME280;25019;42.626;23.380;2024-02-28T11:18:35;94783.94;;;14.68;58.41
39301;BME280;25019;42.626;23.380;2024-02-28T11:21:01;94697.75;;;14.15;58.35
39301;BME280;25019;42.626;23.380;2024-02-28T11:23:37;94774.28;;;14.67;58.25
39301;BME280;25019;42.626;23.380;2024-02-28T11:26:03;94740.31;;;14.52;58.53
39301;BME280;25019;42.626;23.380;2024-02-28T11:28:29;94747.03;;;14.60;58.60
39301;BME280;25019;42.626;23.380;2024-02-28T11:30:55;94757.75;;;14.81;58.41
39301;BME280;25019;42.626;23.380;2024-02-28T11:33:21;94756.16;;;14.85;58.51
39301;BME280;25019;42.626;23.380;2024-02-28T11:35:59;94761.78;;;14.89;58.42
39301;BME280;25019;42.626;23.380;2024-02-28T11:38:25;94748.13;;;14.75;58.47
39301;BME280;25019;42.626;23.380;2024-02-28T11:40:51;94681.75;;;14.20;59.12
39301;BME280;25019;42.626;23.380;2024-02-28T11:43:17;94704.19;;;14.24;59.21
39301;BME280;25019;42.626;23.380;2024-02-28T11:45:44;94754.50;;;14.58;59.12
39301;BME280;25019;42.626;23.380;2024-02-28T11:48:13;94733.63;;;14.45;59.74
39301;BME280;25019;42.626;23.380;2024-02-28T11:50:40;94698.31;;;14.27;60.22
39301;BME280;25019;42.626;23.380;2024-02-28T11:53:06;94681.44;;;14.06;60.48
39301;BME280;25019;42.626;23.380;2024-02-28T11:55:33;94742.72;;;14.64;60.43
39301;BME280;25019;42.626;23.380;2024-02-28T11:57:58;94727.78;;;14.63;60.07
39301;BME280;25019;42.626;23.380;2024-02-28T12:00:24;94715.25;;;14.74;60.11
39301;BME280;25019;42.626;23.380;2024-02-28T12:02:50;94702.94;;;14.83;59.85
39301;BME280;25019;42.626;23.380;2024-02-28T12:05:16;94680.75;;;14.62;59.18
39301;BME280;25019;42.626;23.380;2024-02-28T12:07:42;94729.72;;;15.04;58.73
39301;BME280;25019;42.626;23.380;2024-02-28T12:10:09;94730.75;;;15.19;58.86
39301;BME280;25019;42.626;23.380;2024-02-28T12:12:34;94729.94;;;15.28;58.38
39301;BME280;25019;42.626;23.380;2024-02-28T12:15:01;94728.06;;;15.29;58.37
39301;BME280;25019;42.626;23.380;2024-02-28T12:17:31;94722.44;;;15.31;58.37
39301;BME280;25019;42.626;23.380;2024-02-28T12:20:01;94632.63;;;14.78;58.45
39301;BME280;25019;42.626;23.380;2024-02-28T12:22:27;94688.72;;;15.30;58.68
39301;BME280;25019;42.626;23.380;2024-02-28T12:24:53;94717.00;;;15.72;58.26
39301;BME280;25019;42.626;23.380;2024-02-28T12:27:19;94705.78;;;15.70;58.63
39301;BME280;25019;42.626;23.380;2024-02-28T12:29:45;94711.63;;;15.87;58.46
39301;BME280;25019;42.626;23.380;2024-02-28T12:32:10;94694.22;;;15.80;58.35
39301;BME280;25019;42.626;23.380;2024-02-28T12:34:37;94705.16;;;15.94;58.79
39301;BME280;25019;42.626;23.380;2024-02-28T12:37:03;94615.69;;;15.29;59.34
39301;BME280;25019;42.626;23.380;2024-02-28T12:39:30;94688.34;;;15.67;59.34
39301;BME280;25019;42.626;23.380;2024-02-28T12:41:57;94673.41;;;15.56;60.22
39301;BME280;25019;42.626;23.380;2024-02-28T12:44:23;94690.50;;;15.65;60.52
39301;BME280;25019;42.626;23.380;2024-02-28T12:46:48;94615.69;;;15.29;60.52